Time;durP1;ratioP1;P1;durP2;ratioP2;P2;SDS_P1;SDS_P2;PMS_P1;PMS_P2;Temp;Humidity;BMP_temperature;BMP_pressure;BME280_temperature;BME280_humidity;BME280_pressure;Samples;Min_cycle;Max_cycle;Signal;HPM_P1;HPM_P2
2020/12/22 00:01:00;;;;;;;0.63;0.50;;;14.00;99.90;;;;;;5054930;28;20274;-78
2020/12/22 00:03:26;;;;;;;0.47;0.47;;;14.00;99.90;;;;;;5056681;28;20196;-77
2020/12/22 00:05:52;;;;;;;2.23;0.50;;;14.00;99.90;;;;;;5060642;28;20204;-77
2020/12/22 00:08:19;;;;;;;0.50;0.50;;;13.90;99.90;;;;;;5054573;28;20223;-78
2020/12/22 00:10:45;;;;;;;1.20;0.67;;;13.90;99.90;;;;;;5055992;28;20386;-77
2020/12/22 00:13:11;;;;;;;1.80;0.70;;;13.90;99.90;;;;;;5053315;28;20549;-78
2020/12/22 00:15:39;;;;;;;2.17;0.70;;;13.90;99.90;;;;;;5052736;28;20676;-78
2020/12/22 00:18:05;;;;;;;1.43;0.90;;;13.80;99.90;;;;;;5054999;28;20334;-78
2020/12/22 00:20:31;;;;;;;1.63;0.90;;;13.80;99.90;;;;;;5054647;28;20240;-77
2020/12/22 00:22:57;;;;;;;1.33;0.90;;;13.80;99.90;;;;;;5055871;28;20604;-77
2020/12/22 00:25:24;;;;;;;1.07;0.90;;;13.80;99.90;;;;;;5052918;28;20705;-78
2020/12/22 00:27:50;;;;;;;2.07;0.90;;;13.80;99.90;;;;;;5054896;28;20296;-77
2020/12/22 00:30:17;;;;;;;1.37;0.80;;;13.80;99.90;;;;;;5056354;28;20224;-77
2020/12/22 00:32:44;;;;;;;1.60;1.00;;;13.80;99.90;;;;;;5054324;28;20298;-78
2020/12/22 00:35:10;;;;;;;1.43;0.70;;;13.80;99.90;;;;;;5054823;28;20329;-77
2020/12/22 00:37:36;;;;;;;1.87;0.80;;;13.80;99.90;;;;;;5053194;28;20204;-78
2020/12/22 00:40:03;;;;;;;1.00;0.70;;;13.80;99.90;;;;;;5053500;28;20210;-77
2020/12/22 00:42:30;;;;;;;2.27;0.80;;;13.80;99.90;;;;;;5052223;28;20748;-77
2020/12/22 00:44:57;;;;;;;1.63;0.80;;;13.80;99.90;;;;;;5058909;28;20208;-77
2020/12/22 00:47:23;;;;;;;1.10;0.60;;;13.80;99.90;;;;;;5055061;28;20680;-77
2020/12/22 00:49:50;;;;;;;1.27;0.60;;;13.80;99.90;;;;;;5055659;28;20308;-78
2020/12/22 00:52:17;;;;;;;0.83;0.47;;;13.80;99.90;;;;;;5054432;28;20295;-77
2020/12/22 00:54:43;;;;;;;2.90;0.57;;;13.80;99.90;;;;;;5052925;28;20295;-78
2020/12/22 00:57:10;;;;;;;3.27;0.43;;;13.80;99.90;;;;;;5052601;28;20228;-77
2020/12/22 00:59:36;;;;;;;1.90;0.60;;;13.80;99.90;;;;;;5052085;28;20300;-77
2020/12/22 01:02:04;;;;;;;0.73;0.50;;;13.80;99.90;;;;;;5056020;28;20196;-77
2020/12/22 01:04:31;;;;;;;0.50;0.50;;;13.70;99.90;;;;;;5055870;28;20204;-77
2020/12/22 01:06:58;;;;;;;3.87;0.80;;;13.70;99.90;;;;;;5053675;28;20203;-77
2020/12/22 01:09:24;;;;;;;1.70;0.57;;;13.70;99.90;;;;;;5054934;28;20591;-77
2020/12/22 01:11:51;;;;;;;0.80;0.70;;;13.60;99.90;;;;;;5052226;28;20648;-78
2020/12/22 01:14:17;;;;;;;1.50;0.70;;;13.60;99.90;;;;;;5052567;28;20595;-77
2020/12/22 01:16:44;;;;;;;2.37;0.80;;;13.60;99.90;;;;;;5051829;28;20197;-77
2020/12/22 01:19:10;;;;;;;1.70;0.77;;;13.60;99.90;;;;;;5055514;28;20730;-77
2020/12/22 01:21:36;;;;;;;1.43;0.70;;;13.60;99.90;;;;;;5052806;28;20579;-77
2020/12/22 01:24:04;;;;;;;1.70;0.70;;;13.70;99.90;;;;;;5052258;28;20277;-77
2020/12/22 01:26:32;;;;;;;2.80;0.90;;;13.70;99.90;;;;;;5054362;28;20699;-77
2020/12/22 01:28:58;;;;;;;1.23;0.60;;;13.70;99.90;;;;;;5052657;28;20719;-77
2020/12/22 01:31:27;;;;;;;2.97;0.63;;;13.60;99.90;;;;;;5053730;28;20208;-77
2020/12/22 01:33:54;;;;;;;1.20;0.50;;;13.70;99.90;;;;;;5052054;28;20199;-77
2020/12/22 01:36:21;;;;;;;0.63;0.60;;;13.70;99.90;;;;;;5050993;28;20311;-77
2020/12/22 01:38:48;;;;;;;1.40;0.70;;;13.70;99.90;;;;;;5051231;28;20208;-77
2020/12/22 01:41:16;;;;;;;2.00;0.70;;;13.70;99.90;;;;;;5050432;28;20570;-77
2020/12/22 01:43:43;;;;;;;1.97;0.67;;;13.70;99.90;;;;;;5052791;28;20283;-77
2020/12/22 01:46:10;;;;;;;2.10;0.60;;;13.70;99.90;;;;;;5053164;28;20222;-77
2020/12/22 01:48:37;;;;;;;2.60;0.50;;;13.70;99.90;;;;;;5054158;28;20219;-77
2020/12/22 01:51:04;;;;;;;3.47;0.70;;;13.70;99.90;;;;;;5051533;28;20620;-77
2020/12/22 01:53:30;;;;;;;2.43;0.60;;;13.70;99.90;;;;;;5053270;28;20219;-77
2020/12/22 01:55:57;;;;;;;1.80;0.60;;;13.70;99.90;;;;;;5050833;28;20192;-77
2020/12/22 01:58:24;;;;;;;1.30;0.53;;;13.70;99.90;;;;;;5051773;28;20290;-76
2020/12/22 02:00:50;;;;;;;1.53;0.50;;;13.70;99.90;;;;;;5054536;28;20270;-76
2020/12/22 02:03:17;;;;;;;1.67;0.63;;;13.70;99.90;;;;;;5052756;28;20245;-77
2020/12/22 02:05:43;;;;;;;0.70;0.50;;;13.70;99.90;;;;;;5054777;28;20294;-77
2020/12/22 02:08:10;;;;;;;1.80;0.60;;;13.70;99.90;;;;;;5051051;28;20210;-77
2020/12/22 02:10:49;;;;;;;1.07;0.50;;;13.70;99.90;;;;;;5054115;28;20200;-78
2020/12/22 02:13:15;;;;;;;2.40;0.53;;;13.70;99.90;;;;;;5051234;28;20207;-77
2020/12/22 02:15:43;;;;;;;1.03;0.60;;;13.70;99.90;;;;;;5052319;28;20200;-77
2020/12/22 02:18:09;;;;;;;2.30;0.57;;;13.70;99.90;;;;;;5052348;28;20204;-78
2020/12/22 02:20:36;;;;;;;1.63;0.70;;;13.80;99.90;;;;;;5029503;28;667160;-77
2020/12/22 02:23:03;;;;;;;0.67;0.50;;;13.70;99.90;;;;;;5054160;28;20575;-77
2020/12/22 02:25:30;;;;;;;0.70;0.70;;;13.70;99.90;;;;;;5050772;28;20226;-77
2020/12/22 02:27:56;;;;;;;0.87;0.53;;;13.70;99.90;;;;;;5055039;28;20287;-77
2020/12/22 02:30:23;;;;;;;0.97;0.60;;;13.70;99.90;;;;;;5053589;28;20325;-77
2020/12/22 02:32:49;;;;;;;1.00;0.60;;;13.70;99.90;;;;;;5052338;28;20200;-77
2020/12/22 02:35:16;;;;;;;0.87;0.60;;;13.70;99.90;;;;;;5053956;28;20312;-77
2020/12/22 02:37:42;;;;;;;1.73;0.60;;;13.70;99.90;;;;;;5051309;28;20206;-77
2020/12/22 02:40:09;;;;;;;1.03;0.70;;;13.70;99.90;;;;;;5052808;28;20283;-77
2020/12/22 02:42:36;;;;;;;0.90;0.60;;;13.80;99.90;;;;;;5050748;28;20250;-77
2020/12/22 02:45:02;;;;;;;0.60;0.57;;;13.70;99.90;;;;;;5054881;28;20214;-77
2020/12/22 02:47:28;;;;;;;1.33;0.40;;;13.70;99.90;;;;;;5054079;28;20210;-77
2020/12/22 02:49:55;;;;;;;0.60;0.40;;;13.70;99.90;;;;;;5055626;28;20326;-77
2020/12/22 02:52:21;;;;;;;2.10;0.60;;;13.70;99.90;;;;;;5057842;28;20195;-77
2020/12/22 02:54:47;;;;;;;0.80;0.50;;;13.70;99.90;;;;;;5060098;28;20347;-76
2020/12/22 02:57:14;;;;;;;0.80;0.40;;;13.80;99.90;;;;;;5059117;28;20290;-77
2020/12/22 02:59:41;;;;;;;0.50;0.40;;;13.80;99.90;;;;;;5074961;28;20286;-77
2020/12/22 03:02:07;;;;;;;1.90;0.50;;;13.80;99.90;;;;;;5064365;28;20230;-77
2020/12/22 03:04:36;;;;;;;0.60;0.53;;;13.80;99.90;;;;;;5061441;28;20208;-77
2020/12/22 03:07:02;;;;;;;0.70;0.40;;;13.80;99.90;;;;;;5071391;28;20568;-77
2020/12/22 03:09:28;;;;;;;0.53;0.40;;;13.80;99.90;;;;;;5063659;28;20224;-77
2020/12/22 03:11:55;;;;;;;0.70;0.50;;;13.90;99.90;;;;;;5068953;28;20563;-77
2020/12/22 03:14:22;;;;;;;0.50;0.43;;;13.90;99.90;;;;;;5074759;28;20200;-77
2020/12/22 03:16:48;;;;;;;0.77;0.50;;;13.80;99.90;;;;;;5072597;28;20353;-76
2020/12/22 03:19:14;;;;;;;1.00;0.53;;;13.80;99.90;;;;;;5063121;28;20219;-77
2020/12/22 03:21:41;;;;;;;0.70;0.50;;;13.90;99.90;;;;;;5069642;28;21072;-77
2020/12/22 03:24:07;;;;;;;0.70;0.50;;;13.80;99.90;;;;;;5074065;28;20436;-77
2020/12/22 03:26:33;;;;;;;1.57;0.70;;;13.80;99.90;;;;;;5068482;28;20253;-77
2020/12/22 03:29:00;;;;;;;0.80;0.60;;;13.80;99.90;;;;;;5068543;28;20334;-77
2020/12/22 03:31:27;;;;;;;0.40;0.40;;;13.80;99.90;;;;;;5064353;28;20248;-78
2020/12/22 03:33:53;;;;;;;0.70;0.50;;;13.80;99.90;;;;;;5072889;28;20299;-77
2020/12/22 03:36:19;;;;;;;0.40;0.40;;;13.80;99.90;;;;;;5072588;28;20301;-77
2020/12/22 03:38:46;;;;;;;1.30;0.57;;;13.80;99.90;;;;;;5071484;28;20221;-77
2020/12/22 03:41:12;;;;;;;0.40;0.40;;;13.80;99.90;;;;;;5074483;28;20202;-77
2020/12/22 03:43:38;;;;;;;0.97;0.50;;;13.80;99.90;;;;;;5068034;28;20196;-77
2020/12/22 03:46:06;;;;;;;0.93;0.57;;;13.80;99.90;;;;;;5073545;28;20297;-77
2020/12/22 03:48:33;;;;;;;0.50;0.50;;;13.90;99.90;;;;;;5074516;28;20212;-77
2020/12/22 03:51:00;;;;;;;1.03;0.60;;;13.90;99.90;;;;;;5061321;28;20195;-77
2020/12/22 03:53:26;;;;;;;1.20;0.50;;;13.90;99.90;;;;;;5073537;28;20208;-77
2020/12/22 03:55:52;;;;;;;1.93;0.60;;;13.90;99.90;;;;;;5073866;28;20203;-77
2020/12/22 03:58:19;;;;;;;0.83;0.70;;;13.90;99.90;;;;;;5066715;28;20197;-77
2020/12/22 04:00:46;;;;;;;0.43;0.43;;;13.90;99.90;;;;;;5066208;28;20263;-77
2020/12/22 04:03:12;;;;;;;0.93;0.60;;;14.00;99.90;;;;;;5063475;28;20568;-77
2020/12/22 04:05:39;;;;;;;0.60;0.50;;;13.90;99.90;;;;;;5072587;28;20661;-76
2020/12/22 04:08:05;;;;;;;0.70;0.50;;;13.90;99.90;;;;;;5073165;28;20296;-76
2020/12/22 04:10:32;;;;;;;0.50;0.50;;;13.90;99.90;;;;;;5073064;28;20235;-77
2020/12/22 04:12:58;;;;;;;0.90;0.60;;;13.90;99.90;;;;;;5061151;28;20809;-77
2020/12/22 04:15:24;;;;;;;1.03;0.60;;;13.90;99.90;;;;;;5073871;28;20199;-76
2020/12/22 04:17:51;;;;;;;1.83;0.60;;;13.90;99.90;;;;;;5073246;28;20203;-77
2020/12/22 04:20:17;;;;;;;1.27;0.50;;;13.90;99.90;;;;;;5068781;28;20214;-77
2020/12/22 04:22:44;;;;;;;0.43;0.37;;;13.80;99.90;;;;;;5073096;28;20200;-77
2020/12/22 04:25:11;;;;;;;0.50;0.50;;;13.90;99.90;;;;;;5071796;28;20292;-77
2020/12/22 04:27:37;;;;;;;1.47;0.30;;;13.90;99.90;;;;;;5073418;28;20756;-77
2020/12/22 04:30:04;;;;;;;1.07;0.40;;;13.90;99.90;;;;;;5072601;28;20230;-77
2020/12/22 04:32:30;;;;;;;0.43;0.40;;;13.90;99.90;;;;;;5072556;28;20222;-77
2020/12/22 04:34:57;;;;;;;0.37;0.37;;;13.90;99.90;;;;;;5072613;28;20199;-76
2020/12/22 04:37:23;;;;;;;1.27;0.40;;;14.00;99.90;;;;;;5073451;28;20231;-77
2020/12/22 04:39:50;;;;;;;0.50;0.30;;;14.00;99.90;;;;;;5073317;28;20289;-77
2020/12/22 04:42:20;;;;;;;0.80;0.30;;;14.00;99.90;;;;;;5073298;28;20191;-76
2020/12/22 04:44:46;;;;;;;0.20;0.20;;;14.00;99.90;;;;;;5073408;28;20199;-77
2020/12/22 04:47:13;;;;;;;1.20;0.40;;;13.90;99.90;;;;;;5072924;28;20301;-77
2020/12/22 04:49:43;;;;;;;0.40;0.30;;;13.90;99.90;;;;;;5073202;28;20219;-77
2020/12/22 04:52:09;;;;;;;0.20;0.20;;;13.90;99.90;;;;;;5073296;28;20206;-77
2020/12/22 04:54:38;;;;;;;0.80;0.27;;;13.80;99.90;;;;;;5062989;28;20248;-77
2020/12/22 04:57:06;;;;;;;1.27;0.30;;;13.90;99.90;;;;;;5073105;28;20203;-76
2020/12/22 04:59:33;;;;;;;1.60;0.37;;;13.90;99.90;;;;;;5059160;28;20195;-77
2020/12/22 05:02:02;;;;;;;3.27;0.47;;;13.90;99.90;;;;;;5073155;28;20213;-77
2020/12/22 05:04:35;;;;;;;0.60;0.40;;;13.90;99.90;;;;;;5058035;28;20208;-77
2020/12/22 05:07:01;;;;;;;0.40;0.20;;;13.90;99.90;;;;;;5072783;28;20199;-77
2020/12/22 05:09:28;;;;;;;0.40;0.30;;;13.90;99.90;;;;;;5072229;28;20764;-77
2020/12/22 05:11:54;;;;;;;0.53;0.40;;;14.00;99.90;;;;;;5072163;28;20563;-77
2020/12/22 05:14:21;;;;;;;1.03;0.30;;;13.90;99.90;;;;;;5072839;28;20252;-77
2020/12/22 05:16:48;;;;;;;1.17;0.47;;;13.90;99.90;;;;;;5071984;28;20313;-76
2020/12/22 05:19:18;;;;;;;0.90;0.30;;;14.00;99.90;;;;;;5072359;28;20211;-77
2020/12/22 05:21:45;;;;;;;0.63;0.28;;;14.00;99.90;;;;;;5071367;28;20442;-77
2020/12/22 05:24:13;;;;;;;0.50;0.20;;;14.00;99.90;;;;;;5072225;28;20245;-76
2020/12/22 05:26:41;;;;;;;0.67;0.30;;;14.00;99.90;;;;;;5070779;28;20582;-76
2020/12/22 05:29:09;;;;;;;0.53;0.20;;;14.00;99.90;;;;;;5067083;28;20235;-76
2020/12/22 05:31:42;;;;;;;1.43;0.23;;;14.00;99.90;;;;;;5066543;28;20201;-76
2020/12/22 05:34:10;;;;;;;1.37;0.40;;;14.00;99.90;;;;;;5072374;28;20230;-78
2020/12/22 05:36:39;;;;;;;0.40;0.13;;;14.00;99.90;;;;;;5071775;28;20203;-77
2020/12/22 05:39:07;;;;;;;0.33;0.03;;;14.00;99.90;;;;;;5072164;28;20191;-77
2020/12/22 05:41:34;;;;;;;0.83;0.20;;;14.10;99.90;;;;;;5072059;28;20206;-77
2020/12/22 05:44:00;;;;;;;0.70;0.30;;;14.10;99.90;;;;;;5071853;28;20214;-76
2020/12/22 05:46:29;;;;;;;0.33;0.20;;;14.10;99.90;;;;;;5071939;28;20678;-76
2020/12/22 05:48:59;;;;;;;0.40;0.10;;;14.20;99.90;;;;;;5071605;28;20322;-77
2020/12/22 05:51:26;;;;;;;0.67;0.20;;;14.20;99.90;;;;;;5071768;28;20211;-76
2020/12/22 05:53:54;;;;;;;2.40;0.23;;;14.20;99.90;;;;;;5071953;28;20199;-77
2020/12/22 05:56:23;;;;;;;1.37;0.20;;;14.20;99.90;;;;;;5072046;28;20212;-77
2020/12/22 05:58:50;;;;;;;0.60;0.20;;;14.20;99.90;;;;;;5071511;28;20324;-77
2020/12/22 06:01:28;;;;;;;0.60;0.10;;;14.10;99.90;;;;;;5072168;28;20209;-77
2020/12/22 06:03:56;;;;;;;0.93;0.20;;;14.20;99.90;;;;;;5070228;28;20203;-77
2020/12/22 06:06:25;;;;;;;0.23;0.13;;;14.20;99.90;;;;;;5071466;28;20274;-77
2020/12/22 06:08:52;;;;;;;1.83;0.50;;;14.20;99.90;;;;;;5071892;28;20226;-77
2020/12/22 06:11:18;;;;;;;1.57;0.50;;;14.30;99.90;;;;;;5069284;28;20265;-77
2020/12/22 06:13:47;;;;;;;1.13;0.30;;;14.30;99.90;;;;;;5071468;28;20546;-77
2020/12/22 06:16:17;;;;;;;0.67;0.40;;;14.30;99.90;;;;;;5071857;28;20203;-77
2020/12/22 06:18:45;;;;;;;0.60;0.20;;;14.30;99.90;;;;;;5071746;28;20203;-77
2020/12/22 06:21:11;;;;;;;0.30;0.10;;;14.20;99.90;;;;;;5071942;28;20206;-77
2020/12/22 06:23:39;;;;;;;1.80;0.17;;;14.20;99.90;;;;;;5071126;28;20219;-77
2020/12/22 06:26:06;;;;;;;0.63;0.10;;;14.20;99.90;;;;;;5071834;28;20252;-77
2020/12/22 06:28:33;;;;;;;3.00;0.40;;;14.20;99.90;;;;;;5071277;28;20199;-77
2020/12/22 06:30:59;;;;;;;0.47;0.20;;;14.20;99.90;;;;;;5071311;28;20196;-77
2020/12/22 06:33:27;;;;;;;0.70;0.20;;;14.20;99.90;;;;;;5071243;28;20728;-77
2020/12/22 06:36:02;;;;;;;1.43;0.30;;;14.30;99.90;;;;;;5065051;28;20196;-77
2020/12/22 06:38:51;;;;;;;1.37;0.30;;;14.30;99.90;;;;;;5071542;28;20199;-77
2020/12/22 06:41:45;;;;;;;0.37;0.10;;;14.20;99.90;;;;;;5071366;28;20275;-77
2020/12/22 06:44:22;;;;;;;0.63;0.10;;;14.10;99.90;;;;;;5064036;28;20203;-77
2020/12/22 06:46:51;;;;;;;0.57;0.10;;;14.00;99.90;;;;;;5070044;28;20325;-77
2020/12/22 06:49:18;;;;;;;0.37;0.10;;;14.10;99.90;;;;;;5055004;28;20268;-77
2020/12/22 06:51:44;;;;;;;3.23;0.27;;;14.10;99.90;;;;;;5053867;28;20199;-77
2020/12/22 06:54:36;;;;;;;0.80;0.13;;;14.00;99.90;;;;;;5052247;28;20287;-77
2020/12/22 06:57:04;;;;;;;1.20;0.23;;;14.00;99.90;;;;;;5039944;28;20560;-77
2020/12/22 06:59:48;;;;;;;4.43;0.37;;;14.00;99.90;;;;;;5060420;28;20260;-77
2020/12/22 07:02:32;;;;;;;0.77;0.20;;;13.90;99.90;;;;;;5064461;28;20207;-77
2020/12/22 07:05:00;;;;;;;2.40;0.40;;;13.90;99.90;;;;;;5069920;28;20293;-77
2020/12/22 07:07:26;;;;;;;2.17;0.40;;;13.80;99.90;;;;;;5065696;28;20495;-77
2020/12/22 07:10:06;;;;;;;1.23;0.27;;;13.80;99.90;;;;;;5067465;28;21066;-77
2020/12/22 07:12:36;;;;;;;0.87;0.20;;;13.90;99.90;;;;;;5065672;28;20199;-77
2020/12/22 07:15:03;;;;;;;2.90;0.30;;;13.80;99.90;;;;;;5069814;28;20192;-77
2020/12/22 07:17:30;;;;;;;0.40;0.20;;;13.80;99.90;;;;;;5067133;28;20221;-77
2020/12/22 07:19:57;;;;;;;1.17;0.20;;;13.80;99.90;;;;;;5068174;28;20204;-77
2020/12/22 07:22:24;;;;;;;1.40;0.37;;;13.80;99.90;;;;;;5055163;28;20204;-77
2020/12/22 07:24:50;;;;;;;1.17;0.27;;;13.80;99.90;;;;;;5068833;28;20290;-77
2020/12/22 07:27:17;;;;;;;0.73;0.30;;;13.80;99.90;;;;;;5052623;28;20287;-77
2020/12/22 07:29:44;;;;;;;1.13;0.50;;;13.90;99.90;;;;;;5050854;28;20705;-77
2020/12/22 07:32:11;;;;;;;1.80;0.23;;;13.90;99.90;;;;;;5063056;28;20218;-78
2020/12/22 07:34:38;;;;;;;2.30;0.43;;;13.80;99.90;;;;;;5057145;28;20199;-77
2020/12/22 07:37:06;;;;;;;1.10;0.40;;;13.80;99.90;;;;;;5051397;28;20203;-77
2020/12/22 07:39:32;;;;;;;1.27;0.10;;;13.80;99.90;;;;;;5061817;28;20210;-77
2020/12/22 07:42:08;;;;;;;0.73;0.20;;;13.80;99.90;;;;;;5057181;28;20250;-77
2020/12/22 07:44:36;;;;;;;0.27;0.10;;;13.80;99.90;;;;;;5072986;28;20625;-78
2020/12/22 07:47:07;;;;;;;1.07;0.10;;;13.70;99.90;;;;;;5073951;28;20291;-77
2020/12/22 07:49:34;;;;;;;0.60;0.20;;;13.70;99.90;;;;;;5072773;28;20296;-77
2020/12/22 07:52:01;;;;;;;1.37;0.20;;;13.90;99.90;;;;;;5073479;28;21084;-77
2020/12/22 07:54:27;;;;;;;1.03;0.20;;;13.90;99.90;;;;;;5072651;28;20195;-77
2020/12/22 07:56:57;;;;;;;1.27;0.10;;;13.90;99.90;;;;;;5074007;28;20678;-77
2020/12/22 07:59:24;;;;;;;1.37;0.30;;;13.90;99.90;;;;;;5062770;28;20239;-77
2020/12/22 08:01:52;;;;;;;0.67;0.30;;;13.80;99.90;;;;;;5068199;28;20220;-78
2020/12/22 08:04:21;;;;;;;1.00;0.10;;;13.90;99.90;;;;;;5067481;28;20735;-78
2020/12/22 08:06:55;;;;;;;0.90;0.10;;;13.90;99.90;;;;;;5054596;28;20199;-78
2020/12/22 08:09:26;;;;;;;1.63;0.30;;;13.80;99.90;;;;;;5063629;28;20629;-79
2020/12/22 08:11:56;;;;;;;1.03;0.20;;;13.70;99.90;;;;;;5067588;28;20248;-78
2020/12/22 08:14:24;;;;;;;0.33;0.20;;;13.70;99.90;;;;;;5053909;28;20285;-79
2020/12/22 08:16:55;;;;;;;1.33;0.20;;;13.70;99.90;;;;;;5056206;28;20204;-78
2020/12/22 08:19:23;;;;;;;1.43;0.30;;;13.70;99.90;;;;;;5056297;28;20208;-78
2020/12/22 08:21:54;;;;;;;1.37;0.60;;;13.70;99.90;;;;;;5053708;28;20262;-77
2020/12/22 08:24:20;;;;;;;1.33;0.67;;;13.70;99.90;;;;;;5059597;28;20591;-78
2020/12/22 08:26:49;;;;;;;1.00;0.60;;;13.70;99.90;;;;;;5062383;28;20214;-78
2020/12/22 08:29:17;;;;;;;2.23;0.77;;;13.70;99.90;;;;;;5070374;28;20322;-78
2020/12/22 08:31:45;;;;;;;0.70;0.30;;;13.70;99.90;;;;;;5068937;28;20218;-78
2020/12/22 08:34:15;;;;;;;2.23;0.53;;;13.60;99.90;;;;;;5056189;28;20250;-77
2020/12/22 08:36:43;;;;;;;1.97;0.57;;;13.50;99.90;;;;;;5062098;28;20609;-77
2020/12/22 08:39:21;;;;;;;3.80;0.60;;;13.50;99.90;;;;;;5059702;28;20649;-77
2020/12/22 08:41:50;;;;;;;1.10;0.40;;;13.60;99.90;;;;;;5066323;28;20286;-78
2020/12/22 08:44:17;;;;;;;1.40;0.50;;;13.60;99.90;;;;;;5058780;28;20980;-78
2020/12/22 08:46:46;;;;;;;2.37;0.40;;;13.60;99.90;;;;;;5052166;28;20283;-79
2020/12/22 08:49:15;;;;;;;1.33;0.30;;;13.60;99.90;;;;;;5053465;28;20222;-76
2020/12/22 08:51:43;;;;;;;1.27;0.20;;;13.60;99.90;;;;;;5055991;28;20199;-79
2020/12/22 08:54:10;;;;;;;1.30;0.57;;;13.50;99.90;;;;;;5061549;28;20238;-79
2020/12/22 08:56:40;;;;;;;1.47;0.30;;;13.50;99.90;;;;;;5070759;28;20282;-80
2020/12/22 08:59:08;;;;;;;1.30;0.40;;;13.50;99.90;;;;;;5063540;28;20200;-79
2020/12/22 09:01:42;;;;;;;2.00;0.40;;;13.50;99.90;;;;;;5071188;28;20299;-80
2020/12/22 09:04:10;;;;;;;0.80;0.10;;;13.50;99.90;;;;;;5068655;28;20286;-80
2020/12/22 09:06:39;;;;;;;1.83;0.40;;;13.60;99.90;;;;;;5065151;28;20302;-79
2020/12/22 09:09:08;;;;;;;0.93;0.20;;;13.50;99.90;;;;;;5067762;28;20282;-78
2020/12/22 09:11:35;;;;;;;0.87;0.30;;;13.50;99.90;;;;;;5060560;28;20196;-79
2020/12/22 09:14:04;;;;;;;0.93;0.30;;;13.50;99.90;;;;;;5057330;28;20203;-79
2020/12/22 09:16:54;;;;;;;0.90;0.13;;;13.60;99.90;;;;;;5050018;28;20203;-79
2020/12/22 09:19:23;;;;;;;2.10;0.50;;;13.70;99.90;;;;;;5052158;28;20386;-78
2020/12/22 09:21:59;;;;;;;2.27;0.30;;;13.70;99.90;;;;;;5065826;28;20328;-79
2020/12/22 09:24:25;;;;;;;1.07;0.30;;;13.70;99.90;;;;;;5071619;28;20202;-79
2020/12/22 09:26:56;;;;;;;2.37;0.37;;;13.70;99.90;;;;;;5071199;28;20310;-78
2020/12/22 09:29:23;;;;;;;2.57;0.37;;;13.70;99.90;;;;;;5067304;28;20215;-79
2020/12/22 09:31:50;;;;;;;1.37;0.30;;;13.70;99.90;;;;;;5064940;28;20207;-78
2020/12/22 09:34:16;;;;;;;4.07;0.53;;;13.70;99.90;;;;;;5065286;28;20649;-79
2020/12/22 09:36:43;;;;;;;0.57;0.10;;;13.70;99.90;;;;;;5067435;28;20568;-77
2020/12/22 09:39:10;;;;;;;3.37;0.60;;;13.70;99.90;;;;;;5066468;28;20314;-77
2020/12/22 09:41:43;;;;;;;1.47;0.40;;;13.60;99.90;;;;;;5068282;28;20196;-77
2020/12/22 09:44:10;;;;;;;1.77;0.53;;;13.60;99.90;;;;;;5060297;28;20208;-78
2020/12/22 09:46:36;;;;;;;0.97;0.40;;;13.60;99.90;;;;;;5057105;28;20284;-78
2020/12/22 09:49:03;;;;;;;1.63;0.30;;;13.50;99.90;;;;;;5054202;28;20571;-77
2020/12/22 09:51:30;;;;;;;2.17;0.30;;;13.40;99.90;;;;;;5066903;28;20286;-79
2020/12/22 09:53:56;;;;;;;1.23;0.30;;;13.40;99.90;;;;;;5060230;28;20199;-78
2020/12/22 09:56:26;;;;;;;1.23;0.23;;;13.40;99.90;;;;;;5066367;28;20234;-79
2020/12/22 09:58:52;;;;;;;1.90;0.30;;;13.30;99.90;;;;;;5068145;28;20203;-78
2020/12/22 10:01:23;;;;;;;1.87;0.40;;;13.40;99.90;;;;;;5068527;28;20243;-78
2020/12/22 10:03:50;;;;;;;2.53;0.40;;;13.30;99.90;;;;;;5066529;28;20200;-78
2020/12/22 10:06:18;;;;;;;3.47;0.30;;;13.30;99.90;;;;;;5053700;28;20199;-79
2020/12/22 10:08:44;;;;;;;1.33;0.30;;;13.20;99.90;;;;;;5060550;28;20278;-78
2020/12/22 10:11:11;;;;;;;2.03;0.50;;;13.20;99.90;;;;;;5067310;28;20767;-78
2020/12/22 10:13:39;;;;;;;1.13;0.33;;;13.10;99.90;;;;;;5056665;28;20209;-79
2020/12/22 10:16:07;;;;;;;1.80;0.40;;;13.10;99.90;;;;;;5058611;28;20199;-78
2020/12/22 10:18:33;;;;;;;0.93;0.20;;;13.10;99.90;;;;;;5047278;28;20392;-78
2020/12/22 10:21:07;;;;;;;0.40;0.10;;;13.00;99.90;;;;;;5058845;28;20237;-78
2020/12/22 10:23:34;;;;;;;0.67;0.20;;;13.00;99.90;;;;;;5061283;28;20256;-78
2020/12/22 10:26:02;;;;;;;1.70;0.30;;;13.10;99.90;;;;;;5064871;28;20192;-78
2020/12/22 10:28:29;;;;;;;0.40;0.23;;;13.10;99.90;;;;;;5064916;28;20229;-78
2020/12/22 10:30:57;;;;;;;0.70;0.30;;;13.10;99.90;;;;;;5067270;28;20984;-79
2020/12/22 10:33:23;;;;;;;1.00;0.20;;;13.20;99.90;;;;;;5062502;28;20754;-79
2020/12/22 10:35:49;;;;;;;1.33;0.27;;;13.20;99.90;;;;;;5060415;28;20752;-78
2020/12/22 10:38:16;;;;;;;1.00;0.30;;;13.20;99.90;;;;;;5068656;28;20543;-78
2020/12/22 10:40:43;;;;;;;1.20;0.20;;;13.10;99.90;;;;;;5060463;28;20192;-78
2020/12/22 10:43:09;;;;;;;1.33;0.30;;;13.10;99.90;;;;;;5063197;28;20198;-78
2020/12/22 10:45:36;;;;;;;1.70;0.33;;;13.10;99.90;;;;;;5058952;28;20277;-78
2020/12/22 10:48:04;;;;;;;1.27;0.10;;;13.10;99.90;;;;;;5068523;28;20234;-78
2020/12/22 10:50:30;;;;;;;0.73;0.20;;;13.10;99.90;;;;;;5064794;28;20327;-77
2020/12/22 10:52:57;;;;;;;0.77;0.20;;;13.10;99.90;;;;;;5060061;28;20203;-78
2020/12/22 10:55:23;;;;;;;1.40;0.20;;;13.10;99.90;;;;;;5065189;28;20204;-78
2020/12/22 10:57:50;;;;;;;1.50;0.33;;;13.10;99.90;;;;;;5067234;28;20286;-78
2020/12/22 11:00:17;;;;;;;1.13;0.20;;;13.00;99.90;;;;;;5060542;28;20202;-78
2020/12/22 11:02:45;;;;;;;0.90;0.20;;;13.00;99.90;;;;;;5070695;28;20198;-78
2020/12/22 11:05:12;;;;;;;1.23;0.40;;;13.00;99.90;;;;;;5063039;28;20210;-78
2020/12/22 11:07:43;;;;;;;2.27;0.20;;;13.00;99.90;;;;;;5068725;28;20206;-78
2020/12/22 11:10:10;;;;;;;1.07;0.20;;;13.00;99.90;;;;;;5065772;28;20259;-79
2020/12/22 11:12:37;;;;;;;1.67;0.30;;;13.00;99.90;;;;;;5070508;28;20203;-78
2020/12/22 11:15:03;;;;;;;2.10;0.30;;;13.00;99.90;;;;;;5058791;28;20673;-78
2020/12/22 11:17:30;;;;;;;1.10;0.30;;;13.10;99.90;;;;;;5070529;28;20283;-78
2020/12/22 11:19:56;;;;;;;0.93;0.30;;;13.10;99.90;;;;;;5055262;28;20928;-80
2020/12/22 11:22:23;;;;;;;1.03;0.30;;;13.20;99.90;;;;;;5059446;28;20208;-78
2020/12/22 11:24:50;;;;;;;1.60;0.40;;;13.20;99.90;;;;;;5065801;28;20306;-78
2020/12/22 11:27:16;;;;;;;0.97;0.37;;;13.30;99.90;;;;;;5064199;28;20208;-78
2020/12/22 11:29:43;;;;;;;0.57;0.30;;;13.30;99.90;;;;;;5069559;28;20234;-78
2020/12/22 11:32:10;;;;;;;2.37;0.50;;;13.40;99.90;;;;;;5067507;28;20273;-78
2020/12/22 11:34:37;;;;;;;2.97;0.50;;;13.50;99.90;;;;;;5067051;28;20248;-78
2020/12/22 11:37:03;;;;;;;1.90;0.60;;;13.60;99.90;;;;;;5064421;28;20301;-78
2020/12/22 11:39:31;;;;;;;2.83;0.87;;;13.70;99.90;;;;;;5067708;28;20204;-78
2020/12/22 11:42:01;;;;;;;3.70;0.90;;;13.70;99.90;;;;;;5066600;28;20677;-78
2020/12/22 11:44:27;;;;;;;3.40;0.70;;;13.90;99.90;;;;;;5067655;28;20210;-78
2020/12/22 11:46:54;;;;;;;2.73;0.77;;;14.20;99.90;;;;;;5064490;28;20203;-78
2020/12/22 11:49:20;;;;;;;2.70;0.77;;;14.50;99.90;;;;;;5067272;28;20195;-78
2020/12/22 11:51:46;;;;;;;1.60;0.60;;;14.60;99.90;;;;;;5070119;28;20263;-78
2020/12/22 11:54:13;;;;;;;2.73;0.73;;;14.80;99.90;;;;;;5063138;28;20208;-78
2020/12/22 11:56:40;;;;;;;1.43;0.80;;;14.90;99.90;;;;;;5057492;28;20823;-77
2020/12/22 11:59:06;;;;;;;0.80;0.40;;;14.90;99.90;;;;;;5073229;28;20694;-77
2020/12/22 12:01:33;;;;;;;2.03;0.70;;;14.90;99.90;;;;;;5070331;28;20301;-77
2020/12/22 12:03:59;;;;;;;3.53;0.50;;;14.90;99.90;;;;;;5066918;28;20242;-78
2020/12/22 12:06:26;;;;;;;3.90;0.60;;;14.90;99.90;;;;;;5039397;28;20214;-77
2020/12/22 12:08:52;;;;;;;2.43;0.70;;;14.90;99.90;;;;;;5065536;28;20191;-77
2020/12/22 12:11:18;;;;;;;2.90;0.53;;;15.00;99.90;;;;;;5058617;28;20224;-78
2020/12/22 12:13:45;;;;;;;2.20;0.60;;;14.90;99.90;;;;;;5070849;28;20219;-77
2020/12/22 12:16:15;;;;;;;1.87;0.70;;;14.80;99.90;;;;;;5066529;28;20286;-78
2020/12/22 12:18:42;;;;;;;2.13;0.80;;;14.90;99.90;;;;;;5059387;28;20215;-77
2020/12/22 12:21:08;;;;;;;1.97;0.70;;;15.00;99.90;;;;;;5060890;28;20244;-78
2020/12/22 12:23:35;;;;;;;3.47;0.80;;;15.10;99.90;;;;;;5057935;28;20566;-77
2020/12/22 12:26:05;;;;;;;1.33;0.57;;;15.20;99.90;;;;;;5050420;28;20273;-78
2020/12/22 12:28:31;;;;;;;4.70;0.90;;;15.40;99.90;;;;;;5053481;28;20309;-78
2020/12/22 12:30:58;;;;;;;2.53;0.70;;;15.40;99.90;;;;;;5068530;28;20315;-78
2020/12/22 12:33:25;;;;;;;3.90;0.80;;;15.60;99.90;;;;;;5064305;28;20204;-78
2020/12/22 12:35:51;;;;;;;3.17;0.70;;;15.60;99.90;;;;;;5056168;28;20192;-77
2020/12/22 12:38:17;;;;;;;2.47;0.80;;;15.50;99.90;;;;;;5063406;28;20210;-78
2020/12/22 12:40:44;;;;;;;1.83;0.80;;;15.50;99.90;;;;;;5068013;28;20202;-78
2020/12/22 12:43:10;;;;;;;1.87;0.80;;;15.50;99.90;;;;;;5067914;28;20206;-78
2020/12/22 12:45:36;;;;;;;1.67;0.50;;;15.50;99.90;;;;;;5069271;28;20230;-78
2020/12/22 12:48:04;;;;;;;1.40;0.50;;;15.30;99.90;;;;;;5067947;28;20204;-78
2020/12/22 12:50:30;;;;;;;3.73;0.70;;;15.30;99.90;;;;;;5057940;28;20235;-78